createdAt,value
2022-08-21T00:01:37.482Z,1993.20
2022-08-21T00:06:40.709Z,1355.30
2022-08-21T00:11:35.794Z,1276.20
2022-08-21T00:16:35.138Z,1760.90
2022-08-21T00:21:34.482Z,1942.80
2022-08-21T00:26:34.667Z,1245.60
2022-08-21T00:31:32.767Z,1274.50
2022-08-21T00:36:32.127Z,1542.20
2022-08-21T00:41:38.205Z,1126.90
2022-08-21T00:46:30.454Z,1903.00
2022-08-21T00:51:29.801Z,1723.40
2022-08-21T00:56:29.964Z,1451.30
2022-08-21T01:01:29.182Z,1775.20
2022-08-21T01:06:27.319Z,1733.30
2022-08-21T01:11:27.646Z,1217.70
2022-08-21T01:16:25.938Z,1330.90
2022-08-21T01:21:28.680Z,1506.60
2022-08-21T01:26:24.465Z,1211.40
2022-08-21T01:31:25.984Z,1500.90
2022-08-21T01:36:23.987Z,1350.00
2022-08-21T01:41:22.283Z,1254.00
2022-08-21T01:46:21.602Z,1668.20
2022-08-21T01:51:20.926Z,1242.10
2022-08-21T01:56:20.260Z,1200.70
2022-08-21T02:01:19.462Z,970.20
2022-08-21T02:06:19.618Z,1305.30
2022-08-21T02:11:18.781Z,1191.50
2022-08-21T02:16:19.385Z,1654.70
2022-08-21T02:21:16.118Z,1163.00
2022-08-21T02:26:16.256Z,1621.70
2022-08-21T02:31:15.572Z,1548.10
2022-08-21T02:36:13.884Z,1133.70
2022-08-21T02:41:14.159Z,1295.80
2022-08-21T02:46:12.487Z,1145.40
2022-08-21T02:51:11.904Z,1681.60
2022-08-21T02:56:11.031Z,1999.90
2022-08-21T03:01:10.380Z,1385.40
2022-08-21T03:06:10.489Z,1734.60
2022-08-21T03:11:10.800Z,1600.40
2022-08-21T03:16:09.795Z,1618.30
2022-08-21T03:21:08.328Z,1586.80
2022-08-21T03:26:07.457Z,1677.00
2022-08-21T03:31:07.738Z,1444.20
2022-08-21T03:36:05.075Z,1179.40
2022-08-21T03:41:06.204Z,960.00
2022-08-21T03:46:04.544Z,905.00
2022-08-21T03:51:04.629Z,1045.70
2022-08-21T03:56:02.937Z,1290.40
2022-08-21T04:01:02.336Z,1341.90
2022-08-21T04:06:00.468Z,1999.90
2022-08-21T04:11:00.612Z,1542.10
2022-08-21T04:15:58.733Z,1394.30
2022-08-21T04:20:57.174Z,1972.40
2022-08-21T04:25:58.378Z,1812.80
2022-08-21T04:30:57.509Z,1661.80
2022-08-21T04:35:58.986Z,1261.60
2022-08-21T04:40:55.072Z,1908.90
2022-08-21T04:45:54.385Z,1390.50
2022-08-21T04:50:54.686Z,1954.40
2022-08-21T04:55:53.968Z,1816.60
2022-08-21T05:00:52.278Z,1812.70
2022-08-21T05:05:51.611Z,1999.90
2022-08-21T05:10:51.719Z,1602.90
2022-08-21T05:15:50.992Z,1669.10
2022-08-21T05:20:50.285Z,1880.30
2022-08-21T05:25:48.572Z,1583.00
2022-08-21T05:30:46.857Z,1644.50
2022-08-21T05:35:47.165Z,1985.60
2022-08-21T05:40:49.594Z,1451.00
2022-08-21T05:45:46.753Z,1471.40
2022-08-21T05:50:45.048Z,1559.30
2022-08-21T05:55:46.222Z,1637.60
2022-08-21T06:00:43.685Z,1982.50
2022-08-21T06:05:43.050Z,1198.00
2022-08-21T06:10:42.132Z,1757.20
2022-08-21T06:15:59.431Z,1398.70
2022-08-21T06:20:40.643Z,1509.80
2022-08-21T06:25:42.046Z,1415.20
2022-08-21T06:30:40.129Z,1840.20
2022-08-21T06:35:41.470Z,1642.70
2022-08-21T06:40:39.046Z,1560.00
2022-08-21T06:45:36.830Z,1540.20
2022-08-21T06:50:36.180Z,1467.90
2022-08-21T06:55:37.296Z,1803.30
2022-08-21T07:00:36.606Z,956.90
2022-08-21T07:05:33.963Z,1292.90
2022-08-21T07:10:33.129Z,1163.40
2022-08-21T07:15:32.439Z,1114.30
2022-08-21T07:20:32.929Z,999.60
2022-08-21T07:25:31.070Z,1125.40
2022-08-21T07:30:32.277Z,1205.20
2022-08-21T07:35:29.465Z,970.90
2022-08-21T07:40:29.609Z,1067.20
2022-08-21T07:45:26.728Z,1133.20
2022-08-21T07:50:27.095Z,1113.30
2022-08-21T07:55:28.273Z,957.00
2022-08-21T08:00:25.407Z,820.50
2022-08-21T08:05:24.759Z,1130.60
2022-08-21T08:10:23.685Z,946.90
2022-08-21T08:15:25.037Z,1288.50
2022-08-21T08:20:22.159Z,1483.40
2022-08-21T08:25:22.579Z,1311.00
2022-08-21T08:30:21.818Z,1179.20
2022-08-21T08:35:26.201Z,1121.90
2022-08-21T08:40:20.380Z,1982.90
2022-08-21T08:45:18.404Z,1480.60
2022-08-21T08:50:18.778Z,1477.90
2022-08-21T08:55:17.888Z,1034.30
2022-08-21T09:00:16.198Z,1478.80
2022-08-21T09:05:17.518Z,1004.00
2022-08-21T09:10:14.648Z,1068.20
2022-08-21T09:15:15.012Z,1435.70
2022-08-21T09:20:14.139Z,995.00
2022-08-21T09:25:13.400Z,1058.70
2022-08-21T09:30:11.695Z,1030.50
2022-08-21T09:35:11.020Z,985.30
2022-08-21T09:40:11.377Z,1227.50
2022-08-21T09:45:13.551Z,1020.60
2022-08-21T09:50:08.883Z,1012.20
2022-08-21T09:55:11.051Z,1143.60
2022-08-21T10:00:10.331Z,966.00
2022-08-21T10:05:06.474Z,899.90
2022-08-21T10:10:05.649Z,1051.80
2022-08-21T10:15:08.611Z,1083.30
2022-08-21T10:20:03.976Z,1049.80
2022-08-21T10:25:03.114Z,974.50
2022-08-21T10:30:02.446Z,996.60
2022-08-21T10:35:01.599Z,1174.80
2022-08-21T10:40:00.797Z,1015.60
2022-08-21T10:44:59.894Z,1170.60
2022-08-21T10:50:00.243Z,1120.30
2022-08-21T10:54:59.572Z,1078.30
2022-08-21T10:59:58.886Z,1181.30
2022-08-21T11:04:57.206Z,1089.60
2022-08-21T11:09:56.522Z,939.20
2022-08-21T11:14:56.840Z,966.80
2022-08-21T11:19:54.933Z,802.00
2022-08-21T11:24:54.326Z,1822.20
2022-08-21T11:29:53.508Z,1288.80
2022-08-21T11:34:53.621Z,1373.40
2022-08-21T11:39:52.018Z,865.10
2022-08-21T11:44:53.097Z,830.10
2022-08-21T11:49:51.446Z,821.00
2022-08-21T11:54:51.855Z,819.20
2022-08-21T11:59:48.810Z,882.30
2022-08-21T12:04:49.924Z,844.70
2022-08-21T12:09:47.198Z,755.30
2022-08-21T12:14:46.600Z,770.70
2022-08-21T12:19:45.737Z,749.10
2022-08-21T12:24:45.844Z,758.50
2022-08-21T12:29:45.155Z,717.40
2022-08-21T12:34:44.461Z,732.80
2022-08-21T12:39:42.847Z,709.80
2022-08-21T12:44:41.934Z,720.00
2022-08-21T12:49:41.252Z,687.10
2022-08-21T12:54:40.577Z,695.50
2022-08-21T12:59:40.742Z,729.20
2022-08-21T13:04:40.815Z,726.70
2022-08-21T13:09:39.171Z,766.30
2022-08-21T13:14:45.785Z,1999.90
2022-08-21T13:19:36.550Z,1545.60
2022-08-21T13:24:43.729Z,688.40
2022-08-21T13:29:35.944Z,1999.90
2022-08-21T13:34:35.246Z,1999.90
2022-08-21T13:39:34.376Z,1999.90
2022-08-21T13:44:31.717Z,914.20
2022-08-21T13:49:32.872Z,645.40
2022-08-21T13:54:30.981Z,646.50
2022-08-21T13:59:29.298Z,635.40
2022-08-21T14:04:29.657Z,670.50
2022-08-21T14:09:28.770Z,681.10
2022-08-21T14:14:29.078Z,724.10
2022-08-21T14:19:27.452Z,725.20
2022-08-21T14:24:26.556Z,682.00
2022-08-21T14:29:26.872Z,633.10
2022-08-21T14:34:27.181Z,1059.70
2022-08-21T14:39:26.313Z,976.50
2022-08-21T14:44:23.661Z,1656.60
2022-08-21T14:49:23.810Z,1999.90
2022-08-21T14:54:22.501Z,1999.90
2022-08-21T14:59:21.314Z,1999.90
2022-08-21T15:04:20.420Z,1999.90
2022-08-21T15:09:19.566Z,1999.90
2022-08-21T15:14:17.903Z,1999.90
2022-08-21T15:19:19.036Z,1999.90
2022-08-21T15:24:17.169Z,1999.90
2022-08-21T15:29:22.507Z,1999.90
2022-08-21T15:34:15.680Z,980.20
2022-08-21T15:39:16.867Z,959.30
2022-08-21T15:44:13.981Z,604.70
2022-08-21T15:49:13.116Z,624.20
2022-08-21T15:54:12.506Z,612.40
2022-08-21T15:59:12.642Z,638.20
2022-08-21T16:04:11.976Z,628.90
2022-08-21T16:09:10.267Z,712.10
2022-08-21T16:14:09.579Z,660.80
2022-08-21T16:19:08.885Z,689.60
2022-08-21T16:24:08.177Z,690.00
2022-08-21T16:29:08.509Z,705.20
2022-08-21T16:34:06.816Z,690.90
2022-08-21T16:39:06.128Z,802.10
2022-08-21T16:44:05.464Z,858.40
2022-08-21T16:49:06.595Z,791.80
2022-08-21T16:54:03.922Z,847.40
2022-08-21T16:59:04.245Z,947.60
2022-08-21T17:04:03.589Z,810.90
2022-08-21T17:09:02.909Z,680.40
2022-08-21T17:14:01.258Z,717.90
2022-08-21T17:19:01.376Z,675.60
2022-08-21T17:23:59.713Z,1495.80
2022-08-21T17:28:58.822Z,1957.30
2022-08-21T17:33:58.161Z,979.00
2022-08-21T17:38:59.469Z,689.10
2022-08-21T17:43:56.807Z,1618.50
2022-08-21T17:48:55.942Z,709.30
2022-08-21T17:53:56.293Z,1999.90
2022-08-21T17:58:54.420Z,1292.60
2022-08-21T18:03:53.756Z,1999.90
2022-08-21T18:08:54.896Z,1999.90
2022-08-21T18:13:52.226Z,1999.90
2022-08-21T18:18:53.568Z,1999.90
2022-08-21T18:23:50.867Z,808.60
2022-08-21T18:28:50.173Z,1999.90
2022-08-21T18:33:58.147Z,1999.90
2022-08-21T18:38:48.692Z,1382.60
2022-08-21T18:43:48.006Z,931.00
2022-08-21T18:48:47.299Z,1999.90
2022-08-21T18:53:46.785Z,1999.90
2022-08-21T18:58:46.110Z,1045.00
2022-08-21T19:03:45.438Z,1147.20
2022-08-21T19:08:44.758Z,1031.10
2022-08-21T19:13:43.685Z,1243.30
2022-08-21T19:18:43.013Z,815.50
2022-08-21T19:23:43.348Z,935.50
2022-08-21T19:28:44.788Z,1012.50
2022-08-21T19:33:40.900Z,1148.40
2022-08-21T19:38:40.197Z,1059.90
2022-08-21T19:43:39.392Z,953.20
2022-08-21T19:48:40.714Z,783.70
2022-08-21T19:53:40.703Z,885.30
2022-08-21T19:58:37.239Z,876.90
2022-08-21T20:03:36.402Z,983.50
2022-08-21T20:08:36.467Z,796.50
2022-08-21T20:13:34.730Z,925.00
2022-08-21T20:18:34.077Z,930.10
2022-08-21T20:23:34.086Z,1151.80
2022-08-21T20:28:32.367Z,1416.30
2022-08-21T20:33:31.535Z,1252.50
2022-08-21T20:38:30.661Z,1013.60
2022-08-21T20:43:29.755Z,1115.70
2022-08-21T20:48:30.112Z,1088.10
2022-08-21T20:53:43.565Z,1073.20
2022-08-21T20:58:29.678Z,1999.90
2022-08-21T21:08:27.043Z,1999.90
2022-08-21T21:13:25.342Z,1999.90
2022-08-21T21:18:24.699Z,1999.90
2022-08-21T21:23:24.926Z,1336.00
2022-08-21T21:28:23.236Z,1893.80
2022-08-21T21:33:23.594Z,1434.10
2022-08-21T21:38:21.739Z,1570.50
2022-08-21T21:43:20.882Z,1299.20
2022-08-21T21:48:21.304Z,1252.30
2022-08-21T21:53:19.336Z,1415.70
2022-08-21T21:58:17.765Z,1253.00
2022-08-21T22:03:16.880Z,1349.30
2022-08-21T22:08:17.177Z,1557.80
2022-08-21T22:18:16.009Z,1999.90
2022-08-21T22:23:15.970Z,1055.20
2022-08-21T22:28:14.288Z,1999.90
2022-08-21T22:33:14.545Z,1999.90
2022-08-21T22:38:13.662Z,1999.90
2022-08-21T22:43:11.992Z,1999.90
2022-08-21T22:48:11.255Z,851.90
2022-08-21T22:53:11.650Z,1118.20
2022-08-21T22:58:10.750Z,1694.60
2022-08-21T23:03:16.477Z,887.30
2022-08-21T23:08:09.835Z,1999.90
2022-08-21T23:13:09.678Z,1999.90
2022-08-21T23:18:06.629Z,1748.30
2022-08-21T23:23:06.034Z,1999.90
2022-08-21T23:28:06.149Z,1954.70
2022-08-21T23:33:07.321Z,1999.90
2022-08-21T23:38:09.331Z,1999.90
2022-08-21T23:43:03.052Z,1999.90
2022-08-21T23:48:02.120Z,1999.90
2022-08-21T23:53:08.888Z,1999.90
2022-08-21T23:58:00.488Z,1999.90
